Latest Coastal Weather Observations for Samuel Hill

IDQ60701

Issued at 2:52 am EST Saturday 2 July 2016 (issued every 10 minutes, with the page automatically refreshed every 10 minutes)

About coastal observations | Map of coastal stations | Coastal observations for QLD | Marine services | Other Formats
Station Details ID: 033308 Name: SAMUEL HILL AERO Lat: -22.74 Lon: 150.66 Height: 31.0 m
Data from the previous 72 hours. | See also: Recent months at Samuel Hill
Date/Time
EST
Temp
°C
Wind Pressure Rain since
9am
mm
Weather Cloud Vis
km
Sea
Height
m
Swell
Dir  Spd
kts
Gust
kts
hPa Trend Height
m
Period
s
Dir
02/02:30am 9.3 SSE 5 6 1021.0 - 0.2 - - 10 - - - -
02/02:00am 9.7 SSW 5 5 1021.1 - 0.2 - - 10 - - - -
02/01:30am 9.4 S 2 4 1021.3 - 0.2 - - 10 - - - -
02/01:00am 9.4 SSE 4 5 1021.5 - 0.2 - - 10 - - - -
02/12:30am 10.0 CALM 0 0 1021.6 - 0.2 - - 10 - - - -
02/12:00am 10.3 SSE 4 5 1021.5 - 0.2 - - 10 - - - -
 
Date/Time
EST
Temp
°C
Wind Pressure Rain since
9am
mm
Weather Cloud Vis
km
Sea
Height
m
Swell
Dir  Spd
kts
Gust
kts
hPa Trend Height
m
Period
s
Dir
01/11:30pm 11.1 NW 3 3 1021.6 - 0.2 - - 10 - - - -
01/11:00pm 11.6 NW 2 3 1021.6 - 0.2 - - 10 - - - -
01/10:30pm 13.0 CALM 0 0 1021.6 - 0.2 - - 10 - - - -
01/10:00pm 12.9 CALM 0 0 1021.6 - 0.2 - - 10 - - - -
01/09:30pm 14.0 CALM 0 0 1021.5 - 0.2 - Partly cloudy 10 - - - -
01/09:00pm 14.9 CALM 0 0 1021.5 - 0.2 - Mostly clear 10 - - - -
01/08:30pm 15.3 SE 2 6 1021.5 - 0.2 - Partly cloudy 10 - - - -
01/08:00pm 15.9 SW 2 3 1021.3 - 0.2 - Partly cloudy 10 - - - -
01/07:30pm 16.1 CALM 0 0 1020.9 - 0.2 - Partly cloudy 10 - - - -
01/07:00pm 16.8 SW 2 4 1020.5 - 0.2 - Partly cloudy 10 - - - -
01/06:30pm 17.3 CALM 0 0 1019.8 - 0.2 - - 10 - - - -
01/06:00pm 18.3 CALM 0 0 1019.2 - 0.2 - - 10 - - - -
01/05:30pm 19.8 NE 4 6 1018.9 - 0.2 - Partly cloudy 10 - - - -
01/05:00pm 21.2 ENE 5 7 1018.6 - 0.2 - Partly cloudy 10 - - - -
01/04:30pm 24.0 SW 4 6 1018.2 - 0.2 - Partly cloudy 10 - - - -
01/04:00pm 24.2 SW 3 13 1018.0 - 0.2 - - 10 - - - -
01/03:30pm 24.4 WSW 4 7 1017.9 - 0.2 - Partly cloudy 10 - - - -
01/03:00pm 23.6 W 5 8 1017.8 - 0.2 - Cloudy 10 - - - -
01/02:30pm 24.3 W 7 12 1017.8 - 0.2 - - 10 - - - -
01/02:00pm 23.7 W 5 9 1018.0 - 0.2 - Partly cloudy 10 - - - -
01/01:30pm 24.6 SW 6 9 1018.4 - 0.2 - Partly cloudy 10 - - - -
01/01:00pm 24.4 SW 9 13 1018.7 - 0.2 - - 10 - - - -
01/12:30pm 24.7 WSW 7 12 1019.2 - 0.2 - Partly cloudy 10 - - - -
01/12:00pm 24.0 WNW 6 9 1019.7 - 0.0 - Partly cloudy 10 - - - -
01/11:30am 23.3 SE 5 6 1020.1 - 0.0 - - 10 - - - -
01/11:00am 23.3 WSW 2 5 1020.6 - 0.0 - - 10 - - - -
01/10:30am 21.5 SSE 4 6 1020.9 - 0.0 - - 10 - - - -
01/10:00am 19.9 SSE 4 6 1021.1 - 0.0 - Partly cloudy 10 - - - -
01/09:34am 17.9 S 5 7 1021.5 - 0.0 - Partly cloudy 10 - - - -
01/09:30am 17.9 S 5 7 1021.5 - 0.0 - Partly cloudy 10 - - - -
01/09:16am 17.2 S 5 7 1021.4 - 0.0 - Partly cloudy 10 - - - -
01/09:00am 16.4 S 4 5 1021.5 - - - Cloudy 3 - - - -
01/08:30am 15.1 SSW 3 5 1021.5 - - - Cloudy 0.9 - - - -
01/08:00am 14.0 SSW 3 5 1021.3 - - - Cloudy 4 - - - -
01/07:59am 14.0 SSW 3 4 1021.3 - - - Cloudy 7 - - - -
01/07:30am 13.1 CALM 0 0 1021.0 - - - Cloudy 10 - - - -
01/07:17am 12.6 CALM 0 1 1020.8 - - - Cloudy 10 - - - -
01/07:00am 11.9 SSW 2 3 1020.7 - - - Cloudy 1 - - - -
01/06:30am 10.8 CALM 0 0 1020.2 - - - Cloudy 0.3 - - - -
01/06:00am 10.7 CALM 0 0 1019.8 - - - Cloudy 0.4 - - - -
01/05:30am 10.7 CALM 0 0 1019.4 - - - Cloudy 0.3 - - - -
01/05:00am 10.4 CALM 0 0 1019.2 - - - Cloudy 0.3 - - - -
01/04:49am 10.5 CALM 0 0 1019.1 - - - Cloudy 6 - - - -
01/04:45am 10.5 CALM 0 0 1019.1 - - - Cloudy 9 - - - -
01/04:30am 10.6 CALM 0 0 1019.1 - - - Cloudy 4 - - - -
01/04:12am 10.5 CALM 0 0 1019.0 - - - Partly cloudy 4 - - - -
01/04:03am 10.5 CALM 0 0 1019.1 - - - Partly cloudy 10 - - - -
01/04:00am 10.5 CALM 0 0 1019.1 - - - Partly cloudy 10 - - - -
01/03:30am 10.9 CALM 0 0 1019.1 - - - Partly cloudy 0.5 - - - -
01/03:00am 11.2 CALM 0 0 1019.1 - 0.0 - Cloudy 0.2 - - - -
01/02:30am 11.5 CALM 0 0 1019.2 - - - Cloudy 0.1 - - - -
01/02:00am 11.4 CALM 0 0 1019.3 - - - Cloudy 0.2 - - - -
01/01:30am 11.2 CALM 0 0 1019.7 - - - Cloudy 0.2 - - - -
01/01:00am 11.4 CALM 0 0 1019.8 - - - Cloudy 0.3 - - - -
01/12:30am 11.6 CALM 0 0 1019.9 - - - Cloudy 0.2 - - - -
01/12:00am 11.6 CALM 0 0 1020.1 - - - Partly cloudy 0.2 - - - -
 
Date/Time
EST
Temp
°C
Wind Pressure Rain since
9am
mm
Weather Cloud Vis
km
Sea
Height
m
Swell
Dir  Spd
kts
Gust
kts
hPa Trend Height
m
Period
s
Dir
30/11:43pm 11.6 CALM 0 0 1020.3 - - - Partly cloudy 0.7 - - - -
30/11:40pm 11.6 CALM 0 0 1020.3 - - - Partly cloudy 5 - - - -
30/11:30pm 11.7 CALM 0 0 1020.4 - - - Partly cloudy 9 - - - -
30/11:00pm 12.0 CALM 0 2 1020.5 - - - Partly cloudy 10 - - - -
30/10:48pm 12.6 NW 3 4 1020.6 - - - Partly cloudy 10 - - - -
30/10:30pm 12.2 CALM 0 0 1020.7 - - - Partly cloudy 0.2 - - - -
30/10:09pm 13.2 CALM 0 0 1020.8 - - - - 5 - - - -
30/10:00pm 13.1 CALM 0 0 1021.0 - - - - 10 - - - -
30/09:30pm 13.6 CALM 0 0 1020.8 - - - Partly cloudy 10 - - - -
30/09:00pm 13.7 CALM 0 0 1021.1 - 0.0 - Partly cloudy 9 - - - -
30/08:30pm 15.1 CALM 0 0 1021.3 - - - Partly cloudy 10 - - - -
30/08:00pm 15.1 CALM 0 0 1021.3 - - - Partly cloudy 10 - - - -
30/07:30pm 15.9 CALM 0 0 1021.2 - - - Cloudy 10 - - - -
30/07:00pm 15.3 CALM 0 0 1020.8 - - - Partly cloudy 10 - - - -
30/06:30pm 16.4 E 1 3 1020.6 - - - - 10 - - - -
30/06:00pm 16.8 ESE 3 4 1020.2 - - - - 10 - - - -
30/05:30pm 18.2 SE 4 5 1019.9 - - - - 10 - - - -
30/05:00pm 19.1 SE 6 8 1019.8 - - - - 10 - - - -
30/04:30pm 20.0 SE 7 10 1019.6 - - - - 10 - - - -
30/04:00pm 20.8 ESE 8 11 1019.4 - - - Partly cloudy 10 - - - -
30/03:30pm 21.4 SE 8 11 1019.3 - - - - 10 - - - -
30/03:00pm 21.6 SE 9 14 1019.5 - - - - 10 - - - -
30/02:30pm 22.0 SSE 10 15 1019.5 - - - Partly cloudy 10 - - - -
30/02:00pm 22.2 SSE 8 13 1019.5 - - - Partly cloudy 10 - - - -
30/01:30pm 22.6 SE 8 12 1019.7 - 0.0 - Partly cloudy 10 - - - -
30/01:00pm 22.2 SE 6 10 1020.0 - 0.0 - Partly cloudy 10 - - - -
30/12:30pm 21.9 SSE 7 12 1020.6 - 0.0 - - 10 - - - -
30/12:00pm 21.1 SE 8 11 1021.1 - 0.0 - Mostly clear 10 - - - -
30/11:30am 20.7 SSE 7 12 1021.6 - 0.0 - - 10 - - - -
30/11:00am 19.9 SSE 8 11 1022.1 - 0.0 - - 10 - - - -
30/10:30am 19.2 SSE 7 12 1022.4 - 0.0 - Partly cloudy 10 - - - -
30/10:00am 18.1 SSE 5 9 1022.7 - 0.0 - Partly cloudy 10 - - - -
30/09:30am 16.9 SE 7 10 1022.7 - 0.0 - Partly cloudy 10 - - - -
30/09:00am 15.9 SSE 5 7 1022.6 - 0.0 - Cloudy 10 - - - -
30/08:30am 14.0 S 2 5 1022.6 - 0.0 - Partly cloudy 10 - - - -
30/08:00am 12.4 SW 2 3 1022.4 - 0.0 - Partly cloudy 10 - - - -
30/07:30am 11.5 SW 3 4 1022.2 - 0.0 - Cloudy 10 - - - -
30/07:00am 10.3 SW 5 5 1022.0 - 0.0 - Partly cloudy 10 - - - -
30/06:30am 9.6 SW 4 5 1021.8 - 0.0 - Partly cloudy 10 - - - -
30/06:00am 10.1 CALM 0 0 1021.6 - 0.0 - Partly cloudy 10 - - - -
30/05:30am 9.1 CALM 0 0 1021.4 - 0.0 - Partly cloudy 10 - - - -
30/05:00am 8.3 SSE 2 4 1021.2 - 0.0 - Partly cloudy 10 - - - -
30/04:30am 8.6 WSW 3 4 1021.4 - 0.0 - Partly cloudy 10 - - - -
30/04:00am 8.6 S 4 4 1021.4 - 0.0 - Partly cloudy 10 - - - -
30/03:30am 8.1 SE 4 5 1021.5 - 0.0 - Partly cloudy 10 - - - -
30/03:00am 7.9 S 3 4 1021.6 - 0.0 - - 10 - - - -
30/02:30am 7.6 SSE 3 4 1022.0 - 0.0 - - 10 - - - -
30/02:00am 7.5 CALM 0 0 1022.2 - 0.0 - - 10 - - - -
30/01:30am 7.6 CALM 0 0 1022.7 - 0.0 - - 10 - - - -
30/01:00am 8.1 CALM 0 0 1022.8 - 0.0 - Partly cloudy 10 - - - -
30/12:30am 7.9 CALM 0 0 1023.1 - 0.0 - Partly cloudy 10 - - - -
30/12:00am 7.9 CALM 0 0 1023.3 - 0.0 - - 10 - - - -
 
Date/Time
EST
Temp
°C
Wind Pressure Rain since
9am
mm
Weather Cloud Vis
km
Sea
Height
m
Swell
Dir  Spd
kts
Gust
kts
hPa Trend Height
m
Period
s
Dir
29/11:30pm 8.1 CALM 0 0 1023.6 - 0.0 - - 10 - - - -
29/11:00pm 8.4 W 1 3 1023.9 - 0.0 - Partly cloudy 10 - - - -
29/10:30pm 8.2 CALM 0 0 1023.9 - 0.0 - Partly cloudy 10 - - - -
29/10:00pm 9.0 CALM 0 0 1024.2 - 0.0 - - 10 - - - -
29/09:30pm 8.6 CALM 0 0 1024.2 - 0.0 - Partly cloudy 10 - - - -
29/09:00pm 9.6 S 3 4 1024.2 - 0.0 - - 10 - - - -
29/08:30pm 10.1 S 4 5 1024.1 - 0.0 - - 10 - - - -
29/08:00pm 10.8 S 4 6 1023.9 - 0.0 - - 10 - - - -
29/07:30pm 10.5 CALM 0 0 1023.9 - 0.0 - - 10 - - - -
29/07:00pm 11.1 ESE 1 3 1023.8 - 0.0 - - 10 - - - -
29/06:30pm 12.1 SE 3 4 1023.6 - 0.0 - - 10 - - - -
29/06:00pm 14.3 SSW 4 5 1023.3 - 0.0 - - 10 - - - -
29/05:30pm 16.1 S 3 4 1023.3 - 0.0 - - 10 - - - -
29/05:00pm 17.2 SSE 4 7 1023.0 - 0.0 - - 10 - - - -
29/04:30pm 18.0 SSE 6 8 1022.9 - 0.0 - - 10 - - - -
29/04:00pm 18.4 SE 8 11 1022.9 - 0.0 - - 10 - - - -
29/03:30pm 18.9 SSE 8 12 1022.7 - 0.0 - - 10 - - - -
29/03:00pm 19.5 SE 7 11 1022.4 - 0.0 - - 10 - - - -
29/02:30pm 19.4 SSE 9 13 1022.4 - 0.0 - - 10 - - - -
29/02:00pm 19.2 ESE 9 13 1022.4 - 0.0 - - 10 - - - -
29/01:30pm 19.7 SE 8 13 1022.6 - 0.0 - - 10 - - - -
29/01:00pm 19.7 SSE 9 14 1023.0 - 0.0 - - 10 - - - -
29/12:30pm 19.2 SE 8 14 1023.2 - 0.0 - - 10 - - - -
29/12:00pm 18.8 SE 8 14 1023.8 - 0.0 - - 10 - - - -
29/11:30am 18.1 SE 9 13 1024.6 - 0.0 - - 10 - - - -
29/11:00am 17.5 SSE 8 13 1025.0 - 0.0 - - 10 - - - -
29/10:30am 16.5 S 8 13 1025.4 - 0.0 - - 10 - - - -
29/10:00am 15.7 SSW 6 9 1025.6 - 0.0 - - 10 - - - -
29/09:30am 14.5 S 7 10 1025.8 - 0.0 - - 10 - - - -
29/09:00am 13.0 SSW 5 7 1026.1 - 0.2 - - 10 - - - -
29/08:30am 11.2 SW 5 7 1026.0 - 0.2 - - 10 - - - -
29/08:00am 9.3 SW 3 5 1025.9 - 0.2 - - 10 - - - -
29/07:30am 7.2 CALM 0 0 1025.6 - 0.2 - - 10 - - - -
29/07:00am 4.4 CALM 0 0 1025.4 - 0.2 - - 10 - - - -
29/06:30am 3.5 CALM 0 0 1024.8 - 0.2 - - 10 - - - -
29/06:00am 3.7 SSE 3 5 1024.5 - 0.2 Rain - 10 - - - -
29/05:30am 4.0 SSW 4 5 1024.3 - 0.0 - - 10 - - - -
29/05:00am 3.6 CALM 0 2 1024.2 - 0.0 - - 10 - - - -
29/04:30am 4.1 SSE 4 5 1024.0 - 0.0 - - 10 - - - -
29/04:00am 4.2 S 4 4 1024.2 - 0.0 - - 10 - - - -
29/03:30am 4.7 SSW 5 6 1024.2 - 0.0 - - 10 - - - -
29/03:00am 4.0 CALM 0 0 1024.0 - 0.0 - - 10 - - - -

Other Formats:

Comma delimited format used in spreadsheet applications
http://www.bom.gov.au/fwo/IDQ60701/IDQ60701.94370.axf

JavaScript Object Notation format (JSON) in row-major order
http://www.bom.gov.au/fwo/IDQ60701/IDQ60701.94370.json